createdAt,value
2023-03-01T00:01:39.452Z,101502.09
2023-03-01T00:04:40.824Z,101501.19
2023-03-01T00:07:42.213Z,101491.78
2023-03-01T00:10:43.700Z,101493.41
2023-03-01T00:13:46.839Z,101496.03
2023-03-01T00:16:48.288Z,101489.91
2023-03-01T00:19:50.898Z,101498.66
2023-03-01T00:22:52.301Z,101493.31
2023-03-01T00:25:54.728Z,101501.09
2023-03-01T00:28:58.794Z,101502.94
2023-03-01T00:32:00.402Z,101506.38
2023-03-01T00:35:01.845Z,101500.13
2023-03-01T00:38:04.826Z,101495.75
2023-03-01T00:41:11.135Z,101490.59
2023-03-01T00:44:12.597Z,101493.06
2023-03-01T00:47:14.851Z,101503.34
2023-03-01T00:50:16.611Z,101509.34
2023-03-01T00:53:18.005Z,101506.75
2023-03-01T00:56:20.815Z,101499.91
2023-03-01T00:59:22.234Z,101514.56
2023-03-01T01:02:23.773Z,101509.22
2023-03-01T01:05:25.168Z,101511.78
2023-03-01T01:08:28.358Z,101511.84
2023-03-01T01:11:30.782Z,101512.72
2023-03-01T01:14:32.522Z,101508.31
2023-03-01T01:17:33.923Z,101503.81
2023-03-01T01:20:37.299Z,101499.47
2023-03-01T01:23:40.768Z,101493.50
2023-03-01T01:26:43.170Z,101477.91
2023-03-01T01:29:44.665Z,101469.31
2023-03-01T01:32:46.098Z,101466.59
2023-03-01T01:35:47.600Z,101460.47
2023-03-01T01:38:49.243Z,101457.84
2023-03-01T01:41:51.081Z,101460.31
2023-03-01T01:45:28.492Z,101464.63
2023-03-01T01:48:42.495Z,101451.47
2023-03-01T01:51:49.113Z,101455.03
2023-03-01T01:55:01.713Z,101455.16
2023-03-01T01:58:07.328Z,101447.25
2023-03-01T02:01:08.965Z,101449.19
2023-03-01T02:04:10.757Z,101440.50
2023-03-01T02:07:17.912Z,101428.41
2023-03-01T02:10:20.007Z,101424.13
2023-03-01T02:13:21.400Z,101421.34
2023-03-01T02:16:23.003Z,101414.38
2023-03-01T02:19:35.246Z,101415.09
2023-03-01T02:22:39.168Z,101411.53
2023-03-01T02:26:02.197Z,101413.22
2023-03-01T02:29:04.057Z,101409.94
2023-03-01T02:32:06.236Z,101405.66
2023-03-01T02:35:10.033Z,101408.31
2023-03-01T02:38:11.411Z,101400.50
2023-03-01T02:41:16.238Z,101403.00
2023-03-01T02:44:18.220Z,101395.09
2023-03-01T02:47:19.642Z,101396.75
2023-03-01T02:50:30.843Z,101394.88
2023-03-01T02:54:14.307Z,101398.31
2023-03-01T02:57:16.475Z,101389.44
2023-03-01T03:00:23.489Z,101382.59
2023-03-01T03:03:25.068Z,101377.34
2023-03-01T03:06:26.539Z,101375.72
2023-03-01T03:09:29.367Z,101375.63
2023-03-01T03:12:31.740Z,101367.81
2023-03-01T03:15:36.833Z,101364.41
2023-03-01T03:18:38.221Z,101359.22
2023-03-01T03:21:39.904Z,101355.78
2023-03-01T03:24:41.308Z,101356.41
2023-03-01T03:27:44.982Z,101352.78
2023-03-01T03:30:47.620Z,101357.91
2023-03-01T03:33:49.043Z,101359.69
2023-03-01T03:37:00.280Z,101358.72
2023-03-01T03:40:01.754Z,101353.69
2023-03-01T03:43:04.822Z,101358.00
2023-03-01T03:46:07.197Z,101350.13
2023-03-01T03:49:08.675Z,101353.44
2023-03-01T03:52:14.269Z,101350.88
2023-03-01T03:55:20.083Z,101345.78
2023-03-01T03:58:25.016Z,101338.75
2023-03-01T04:01:26.547Z,101337.03
2023-03-01T04:04:27.946Z,101328.28
2023-03-01T04:07:29.318Z,101324.63
2023-03-01T04:10:33.602Z,101322.81
2023-03-01T04:13:35.025Z,101331.44
2023-03-01T04:16:36.578Z,101325.63
2023-03-01T04:19:37.964Z,101329.28
2023-03-01T04:22:40.960Z,101329.44
2023-03-01T04:25:55.232Z,101332.00
2023-03-01T04:28:56.662Z,101327.78
2023-03-01T04:31:58.118Z,101330.41
2023-03-01T04:34:59.562Z,101325.16
2023-03-01T04:38:01.048Z,101331.16
2023-03-01T04:41:04.321Z,101337.16
2023-03-01T04:44:06.626Z,101329.28
2023-03-01T04:47:08.052Z,101336.19
2023-03-01T04:50:11.669Z,101335.06
2023-03-01T04:53:13.103Z,101334.09
2023-03-01T04:56:15.354Z,101331.56
2023-03-01T04:59:16.725Z,101328.88
2023-03-01T05:02:18.128Z,101339.44
2023-03-01T05:05:22.597Z,101332.19
2023-03-01T05:08:23.972Z,101335.16
2023-03-01T05:11:25.443Z,101339.25
2023-03-01T05:14:26.832Z,101340.97
2023-03-01T05:17:28.212Z,101335.69
2023-03-01T05:20:30.863Z,101330.41
2023-03-01T05:23:33.578Z,101333.81
2023-03-01T05:26:34.959Z,101338.09
2023-03-01T05:29:36.340Z,101338.19
2023-03-01T05:32:37.720Z,101338.38
2023-03-01T05:35:39.166Z,101339.66
2023-03-01T05:38:40.558Z,101341.88
2023-03-01T05:41:42.018Z,101340.03
2023-03-01T05:44:43.423Z,101338.25
2023-03-01T05:47:46.913Z,101334.75
2023-03-01T05:50:48.490Z,101341.56
2023-03-01T05:53:49.929Z,101347.50
2023-03-01T05:56:51.336Z,101349.25
2023-03-01T05:59:52.728Z,101336.28
2023-03-01T06:02:55.425Z,101328.53
2023-03-01T06:05:58.349Z,101324.31
2023-03-01T06:08:59.814Z,101334.84
2023-03-01T06:12:01.185Z,101330.44
2023-03-01T06:15:03.020Z,101343.97
2023-03-01T06:18:04.433Z,101342.31
2023-03-01T06:21:07.643Z,101334.47
2023-03-01T06:24:09.322Z,101339.56
2023-03-01T06:27:10.734Z,101341.38
2023-03-01T06:30:19.326Z,101337.91
2023-03-01T06:33:25.242Z,101331.97
2023-03-01T06:36:26.635Z,101334.69
2023-03-01T06:39:28.994Z,101332.31
2023-03-01T06:42:30.450Z,101322.81
2023-03-01T06:45:31.860Z,101322.69
2023-03-01T06:48:34.652Z,101325.28
2023-03-01T06:51:37.696Z,101327.19
2023-03-01T06:54:39.326Z,101335.88
2023-03-01T06:57:40.686Z,101322.16
2023-03-01T07:00:43.900Z,101331.00
2023-03-01T07:03:45.345Z,101326.75
2023-03-01T07:06:46.787Z,101325.88
2023-03-01T07:09:49.920Z,101319.94
2023-03-01T07:12:51.507Z,101310.56
2023-03-01T07:15:53.066Z,101319.31
2023-03-01T07:18:55.146Z,101310.75
2023-03-01T07:21:56.806Z,101313.34
2023-03-01T07:24:58.245Z,101311.84
2023-03-01T07:28:00.015Z,101313.75
2023-03-01T07:31:03.144Z,101300.84
2023-03-01T07:34:04.528Z,101293.25
2023-03-01T07:37:06.015Z,101294.19
2023-03-01T07:40:08.391Z,101286.56
2023-03-01T07:43:09.800Z,101294.53
2023-03-01T07:46:11.287Z,101290.47
2023-03-01T07:49:12.787Z,101288.88
2023-03-01T07:52:14.183Z,101287.44
2023-03-01T07:55:17.002Z,101280.66
2023-03-01T07:58:18.465Z,101280.56
2023-03-01T08:01:21.558Z,101278.88
2023-03-01T08:04:24.100Z,101283.31
2023-03-01T08:07:25.493Z,101278.94
2023-03-01T08:10:27.007Z,101294.69
2023-03-01T08:13:29.512Z,101282.78
2023-03-01T08:16:31.383Z,101288.00
2023-03-01T08:19:34.085Z,101297.69
2023-03-01T08:22:35.522Z,101294.09
2023-03-01T08:25:37.235Z,101289.09
2023-03-01T08:28:39.571Z,101278.06
2023-03-01T08:31:41.948Z,101281.63
2023-03-01T08:34:43.382Z,101275.53
2023-03-01T08:37:44.861Z,101264.41
2023-03-01T08:40:46.288Z,101264.47
2023-03-01T08:43:48.092Z,101255.88
2023-03-01T08:46:50.926Z,101259.31
2023-03-01T08:49:52.454Z,101254.28
2023-03-01T08:52:53.838Z,101246.44
2023-03-01T08:55:55.293Z,101256.03
2023-03-01T08:58:56.662Z,101253.53
2023-03-01T09:01:58.112Z,101251.00
2023-03-01T09:04:59.573Z,101245.84
2023-03-01T09:08:01.124Z,101241.53
2023-03-01T09:11:07.633Z,101246.69
2023-03-01T09:14:09.051Z,101238.75
2023-03-01T09:17:10.546Z,101243.13
2023-03-01T09:20:12.133Z,101234.59
2023-03-01T09:23:13.519Z,101230.19
2023-03-01T09:26:20.506Z,101233.78
2023-03-01T09:29:22.736Z,101230.34
2023-03-01T09:32:24.309Z,101228.66
2023-03-01T09:35:25.854Z,101226.88
2023-03-01T09:38:27.829Z,101232.91
2023-03-01T09:41:47.477Z,101225.25
2023-03-01T09:45:04.257Z,101232.16
2023-03-01T09:48:13.586Z,101226.97
2023-03-01T09:51:20.330Z,101225.28
2023-03-01T09:54:21.821Z,101220.13
2023-03-01T09:57:46.791Z,101211.38
2023-03-01T10:00:50.593Z,101210.53
2023-03-01T10:04:19.743Z,101201.81
2023-03-01T10:07:29.095Z,101194.84
2023-03-01T10:10:37.272Z,101203.53
2023-03-01T10:13:49.998Z,101202.59
2023-03-01T10:17:03.767Z,101201.78
2023-03-01T10:20:39.561Z,101190.47
2023-03-01T10:23:40.988Z,101196.53
2023-03-01T10:26:49.251Z,101184.34
2023-03-01T10:30:17.356Z,101173.88
2023-03-01T10:33:23.030Z,101162.50
2023-03-01T10:36:24.897Z,101163.28
2023-03-01T10:39:27.660Z,101157.91
2023-03-01T10:42:32.675Z,101153.50
2023-03-01T10:45:37.300Z,101150.81
2023-03-01T10:48:38.667Z,101144.66
2023-03-01T10:51:45.664Z,101141.25
2023-03-01T10:55:02.911Z,101136.09
2023-03-01T10:58:18.104Z,101130.69
2023-03-01T11:01:19.471Z,101120.91
2023-03-01T11:04:20.913Z,101118.19
2023-03-01T11:07:22.330Z,101111.00
2023-03-01T11:10:33.151Z,101105.91
2023-03-01T11:13:37.433Z,101098.47
2023-03-01T11:16:41.951Z,101096.53
2023-03-01T11:19:46.907Z,101088.13
2023-03-01T11:22:56.192Z,101085.19
2023-03-01T11:26:02.838Z,101085.19
2023-03-01T11:29:08.125Z,101086.75
2023-03-01T11:32:14.213Z,101081.47
2023-03-01T11:35:23.667Z,101071.94
2023-03-01T11:38:27.780Z,101063.97
2023-03-01T11:41:36.160Z,101060.56
2023-03-01T11:44:40.070Z,101044.53
2023-03-01T11:48:12.797Z,101047.72
2023-03-01T11:51:23.541Z,101036.94
2023-03-01T11:54:41.834Z,101033.78
2023-03-01T11:58:42.042Z,101025.75
2023-03-01T12:01:49.258Z,101016.81
2023-03-01T12:04:59.348Z,101005.59
2023-03-01T12:08:09.227Z,100998.25
2023-03-01T12:11:15.539Z,100997.84
2023-03-01T12:14:23.053Z,100979.91
2023-03-01T12:17:45.543Z,100980.25
2023-03-01T12:21:05.799Z,100979.06
2023-03-01T12:24:32.161Z,100973.53
2023-03-01T12:28:09.774Z,100965.00
2023-03-01T12:31:31.272Z,100964.88
2023-03-01T12:35:10.118Z,100955.59
2023-03-01T12:38:26.611Z,100943.28
2023-03-01T12:41:49.283Z,100938.19
2023-03-01T12:45:01.618Z,100929.13
2023-03-01T12:48:40.852Z,100938.41
2023-03-01T12:51:57.633Z,100929.75
2023-03-01T12:55:03.523Z,100927.16
2023-03-01T12:58:25.673Z,100909.06
2023-03-01T13:01:52.574Z,100907.03
2023-03-01T13:05:12.798Z,100908.66
2023-03-01T13:08:23.178Z,100903.19
2023-03-01T13:11:24.993Z,100899.84
2023-03-01T13:14:26.317Z,100898.22
2023-03-01T13:17:32.631Z,100894.16
2023-03-01T13:20:42.907Z,100883.22
2023-03-01T13:23:48.813Z,100879.34
2023-03-01T13:27:08.388Z,100880.19
2023-03-01T13:30:34.647Z,100876.66
2023-03-01T13:33:50.286Z,100862.66
2023-03-01T13:36:52.003Z,100868.66
2023-03-01T13:39:53.800Z,100858.69
2023-03-01T13:43:05.287Z,100866.16
2023-03-01T13:46:17.663Z,100859.81
2023-03-01T13:49:27.338Z,100860.06
2023-03-01T13:52:43.076Z,100848.13
2023-03-01T13:55:58.704Z,100853.59
2023-03-01T13:59:13.549Z,100864.56
2023-03-01T14:02:16.290Z,100850.22
2023-03-01T14:05:17.687Z,100848.78
2023-03-01T14:08:25.088Z,100848.34
2023-03-01T14:11:29.540Z,100842.94
2023-03-01T14:14:39.971Z,100844.44
2023-03-01T14:17:56.852Z,100838.44
2023-03-01T14:20:58.368Z,100829.63
2023-03-01T14:24:00.216Z,100826.56
2023-03-01T14:27:02.768Z,100826.09
2023-03-01T14:30:15.988Z,100825.66
2023-03-01T14:33:26.404Z,100832.88
2023-03-01T14:36:31.128Z,100837.38
2023-03-01T14:39:33.094Z,100840.88
2023-03-01T14:42:37.653Z,100839.06
2023-03-01T14:45:39.227Z,100835.31
2023-03-01T14:48:40.816Z,100840.59
2023-03-01T14:51:44.250Z,100833.06
2023-03-01T14:54:49.279Z,100825.81
2023-03-01T14:57:51.996Z,100825.22
2023-03-01T15:00:56.251Z,100820.44
2023-03-01T15:03:58.074Z,100832.56
2023-03-01T15:07:05.736Z,100825.19
2023-03-01T15:10:16.526Z,100837.59
2023-03-01T15:13:27.428Z,100848.16
2023-03-01T15:16:34.659Z,100853.88
2023-03-01T15:19:36.359Z,100861.31
2023-03-01T15:22:37.854Z,100863.13
2023-03-01T15:25:45.540Z,100864.28
2023-03-01T15:28:51.460Z,100866.16
2023-03-01T15:32:00.253Z,100878.63
2023-03-01T15:35:22.677Z,100886.75
2023-03-01T15:38:32.720Z,100880.78
2023-03-01T15:41:47.461Z,100882.50
2023-03-01T15:44:48.879Z,100881.00
2023-03-01T15:47:52.879Z,100884.41
2023-03-01T15:50:59.231Z,100886.53
2023-03-01T15:54:04.564Z,100876.91
2023-03-01T15:57:05.986Z,100888.47
2023-03-01T16:00:12.306Z,100885.28
2023-03-01T16:03:13.752Z,100881.88
2023-03-01T16:06:15.232Z,100888.03
2023-03-01T16:09:16.711Z,100880.88
2023-03-01T16:12:18.146Z,100880.16
2023-03-01T16:15:25.262Z,100876.88
2023-03-01T16:18:26.845Z,100874.22
2023-03-01T16:21:28.259Z,100875.13
2023-03-01T16:24:29.632Z,100868.53
2023-03-01T16:27:31.008Z,100870.44
2023-03-01T16:30:32.592Z,100865.97
2023-03-01T16:33:34.860Z,100872.22
2023-03-01T16:36:37.553Z,100864.53
2023-03-01T16:39:39.572Z,100874.16
2023-03-01T16:42:41.606Z,100879.44
2023-03-01T16:45:45.507Z,100876.06
2023-03-01T16:48:47.858Z,100872.66
2023-03-01T16:51:49.367Z,100864.69
2023-03-01T16:54:50.768Z,100860.38
2023-03-01T16:57:52.191Z,100861.41
2023-03-01T17:00:55.025Z,100858.09
2023-03-01T17:03:56.926Z,100853.88
2023-03-01T17:06:58.443Z,100855.69
2023-03-01T17:10:04.374Z,100854.03
2023-03-01T17:13:05.759Z,100854.13
2023-03-01T17:16:10.410Z,100854.22
2023-03-01T17:19:12.063Z,100848.13
2023-03-01T17:22:13.988Z,100841.19
2023-03-01T17:25:15.754Z,100837.06
2023-03-01T17:28:17.250Z,100837.19
2023-03-01T17:31:19.971Z,100847.84
2023-03-01T17:34:21.484Z,100849.53
2023-03-01T17:37:23.043Z,100856.63
2023-03-01T17:40:24.409Z,100853.97
2023-03-01T17:43:25.889Z,100860.19
2023-03-01T17:46:27.387Z,100863.75
2023-03-01T17:49:29.136Z,100860.22
2023-03-01T17:52:31.199Z,100868.16
2023-03-01T17:55:32.578Z,100874.25
2023-03-01T17:58:34.298Z,100875.25
2023-03-01T18:01:36.104Z,100887.72
2023-03-01T18:04:37.537Z,100877.28
2023-03-01T18:07:39.090Z,100886.13
2023-03-01T18:10:40.604Z,100892.34
2023-03-01T18:13:42.000Z,100892.50
2023-03-01T18:16:43.553Z,100891.66
2023-03-01T18:19:45.307Z,100899.69
2023-03-01T18:22:47.544Z,100899.69
2023-03-01T18:25:49.102Z,100893.56
2023-03-01T18:28:52.566Z,100894.38
2023-03-01T18:31:54.155Z,100894.38
2023-03-01T18:34:55.579Z,100886.56
2023-03-01T18:37:57.461Z,100885.78
2023-03-01T18:40:59.172Z,100889.41
2023-03-01T18:44:02.650Z,100885.91
2023-03-01T18:47:04.210Z,100879.78
2023-03-01T18:50:06.209Z,100869.34
2023-03-01T18:53:08.059Z,100887.78
2023-03-01T18:56:10.577Z,100875.63
2023-03-01T18:59:12.655Z,100874.81
2023-03-01T19:02:15.485Z,100871.31
2023-03-01T19:05:17.563Z,100874.88
2023-03-01T19:08:18.985Z,100867.94
2023-03-01T19:11:21.776Z,100869.63
2023-03-01T19:14:23.204Z,100869.66
2023-03-01T19:17:30.336Z,100877.53
2023-03-01T19:20:31.739Z,100874.09
2023-03-01T19:23:36.603Z,100872.34
2023-03-01T19:26:38.055Z,100863.63
2023-03-01T19:29:39.789Z,100861.88
2023-03-01T19:32:41.478Z,100851.50
2023-03-01T19:35:42.922Z,100859.31
2023-03-01T19:38:44.412Z,100861.13
2023-03-01T19:41:48.216Z,100860.28
2023-03-01T19:44:51.105Z,100863.81
2023-03-01T19:47:52.535Z,100867.28
2023-03-01T19:50:54.075Z,100859.47
2023-03-01T19:53:55.940Z,100861.34
2023-03-01T19:56:57.483Z,100862.22
2023-03-01T19:59:59.364Z,100861.38
2023-03-01T20:03:01.096Z,100864.03
2023-03-01T20:06:10.605Z,100857.94
2023-03-01T20:09:21.463Z,100860.59
2023-03-01T20:12:23.722Z,100859.72
2023-03-01T20:15:25.360Z,100861.47
2023-03-01T20:18:27.238Z,100865.88
2023-03-01T20:21:28.777Z,100853.72
2023-03-01T20:24:33.307Z,100864.19
2023-03-01T20:27:34.775Z,100864.22
2023-03-01T20:30:37.739Z,100869.47
2023-03-01T20:33:39.823Z,100866.00
2023-03-01T20:36:42.683Z,100871.28
2023-03-01T20:39:44.088Z,100879.09
2023-03-01T20:42:45.464Z,100869.56
2023-03-01T20:45:46.906Z,100871.41
2023-03-01T20:48:48.356Z,100871.41
2023-03-01T20:51:49.770Z,100865.22
2023-03-01T20:54:51.243Z,100866.06
2023-03-01T20:57:52.707Z,100860.03
2023-03-01T21:00:54.132Z,100864.38
2023-03-01T21:03:55.908Z,100869.63
2023-03-01T21:06:57.428Z,100862.69
2023-03-01T21:09:59.018Z,100860.06
2023-03-01T21:13:00.411Z,100864.41
2023-03-01T21:16:07.967Z,100853.09
2023-03-01T21:19:09.492Z,100852.22
2023-03-01T21:22:12.659Z,100854.84
2023-03-01T21:25:14.103Z,100845.25
2023-03-01T21:28:15.566Z,100860.97
2023-03-01T21:31:19.860Z,100850.53
2023-03-01T21:34:21.275Z,100850.63
2023-03-01T21:37:28.341Z,100847.22
2023-03-01T21:40:29.774Z,100852.44
2023-03-01T21:43:31.205Z,100840.31
2023-03-01T21:46:36.455Z,100838.66
2023-03-01T21:49:38.035Z,100836.91
2023-03-01T21:52:39.480Z,100836.09
2023-03-01T21:55:47.455Z,100835.22
2023-03-01T21:58:49.697Z,100833.50
2023-03-01T22:01:51.774Z,100838.75
2023-03-01T22:04:57.335Z,100831.78
2023-03-01T22:07:58.794Z,100833.56
2023-03-01T22:11:02.235Z,100827.47
2023-03-01T22:14:04.701Z,100823.09
2023-03-01T22:17:06.219Z,100824.84
2023-03-01T22:20:08.270Z,100818.78
2023-03-01T22:23:09.699Z,100827.44
2023-03-01T22:26:27.766Z,100830.94
2023-03-01T22:29:29.590Z,100833.53
2023-03-01T22:32:31.209Z,100827.44
2023-03-01T22:35:32.691Z,100825.72
2023-03-01T22:38:34.174Z,100831.81
2023-03-01T22:41:43.012Z,100830.06
2023-03-01T22:44:44.536Z,100832.66
2023-03-01T22:47:45.946Z,100830.91
2023-03-01T22:50:48.486Z,100827.44
2023-03-01T22:53:50.575Z,100830.91
2023-03-01T22:56:51.963Z,100830.03
2023-03-01T22:59:53.344Z,100834.38
2023-03-01T23:02:54.801Z,100834.38
2023-03-01T23:05:56.279Z,100834.38
2023-03-01T23:09:00.320Z,100833.50
2023-03-01T23:12:06.490Z,100836.09
2023-03-01T23:15:08.949Z,100836.97
2023-03-01T23:18:10.951Z,100836.97
2023-03-01T23:21:14.769Z,100842.13
2023-03-01T23:24:18.196Z,100838.63
2023-03-01T23:27:19.639Z,100841.16
2023-03-01T23:30:21.592Z,100836.84
2023-03-01T23:33:23.100Z,100835.94
2023-03-01T23:36:28.469Z,100833.31
2023-03-01T23:39:31.982Z,100833.28
2023-03-01T23:42:34.129Z,100828.88
2023-03-01T23:45:42.976Z,100830.59
2023-03-01T23:48:45.526Z,100819.34
2023-03-01T23:51:47.783Z,100819.31
2023-03-01T23:54:49.213Z,100821.09
2023-03-01T23:57:50.633Z,100818.44
